South Lynchburg, South Carolina
Current Conditions -  °F | °C
As of 11:35 AM on Tuesday 21 Oct 2014 (Local Time) from KSMS Reporting Station
Clear Clear  
Wind Chill: 72°   Ceiling: Unl
Heat Index: 72°   Visibility: 10mi
Dew Point: 54°   Wind: 5mph
Humidity: 53%   Direction: 260°W
Pressure: 29.96"   Gusts: NA
Location:  34.0395°N, 80.1095°W
Report Text: KSMS 211535Z AUTO 26004KT 10SM CLR 22/12 A2996 RMK AO2
Loading
Personal Weather Stations






























Interactive Weather Map
Tropical Storm Tracking
New forecast layout! Learn more

10-Day Weather Forecast

Advertisements
Track Severe Weather on mobile